Time;durP1;ratioP1;P1;durP2;ratioP2;P2;SDS_P1;SDS_P2;PMS_P1;PMS_P2;Temp;Humidity;BMP_temperature;BMP_pressure;BME280_temperature;BME280_humidity;BME280_pressure;Samples;Min_cycle;Max_cycle;Signal;HPM_P1;HPM_P2
2023/03/14 00:01:14;;;;;;;25.58;6.60;;;8.90;99.90;;;;;;5059959;28;20108;-48
2023/03/14 00:03:39;;;;;;;31.13;7.25;;;8.90;99.90;;;;;;5057486;28;20419;-46
2023/03/14 00:06:06;;;;;;;28.05;6.55;;;8.90;99.90;;;;;;5058139;28;20080;-47
2023/03/14 00:08:32;;;;;;;22.27;7.72;;;8.90;99.90;;;;;;5057281;28;20072;-47
2023/03/14 00:11:03;;;;;;;26.77;7.25;;;8.90;99.90;;;;;;5054374;28;20445;-40
2023/03/14 00:13:28;;;;;;;28.48;6.10;;;8.90;99.90;;;;;;5057750;28;20699;-41
2023/03/14 00:15:54;;;;;;;26.27;6.05;;;8.90;99.90;;;;;;5062133;28;20047;-46
2023/03/14 00:18:20;;;;;;;28.10;6.20;;;8.90;99.90;;;;;;5066334;28;20045;-41
2023/03/14 00:20:46;;;;;;;32.85;7.10;;;8.90;99.90;;;;;;5074490;28;20059;-40
2023/03/14 00:23:11;;;;;;;22.88;5.40;;;8.90;99.90;;;;;;5076633;28;20482;-41
2023/03/14 00:25:37;;;;;;;27.80;5.60;;;8.90;99.90;;;;;;5072950;28;20517;-52
2023/03/14 00:28:03;;;;;;;19.10;6.53;;;9.00;99.90;;;;;;5058493;28;20048;-48
2023/03/14 00:30:28;;;;;;;28.90;6.28;;;9.00;99.90;;;;;;5073308;28;20651;-45
2023/03/14 00:32:54;;;;;;;27.45;6.03;;;9.00;99.90;;;;;;5077706;28;20146;-48
2023/03/14 00:35:20;;;;;;;22.55;5.43;;;9.00;99.90;;;;;;5077270;28;20050;-41
2023/03/14 00:37:45;;;;;;;29.75;5.80;;;9.00;99.90;;;;;;5060907;28;20092;-40
2023/03/14 00:40:11;;;;;;;16.25;5.00;;;9.00;99.90;;;;;;5055584;28;20176;-44
2023/03/14 00:42:37;;;;;;;20.95;5.55;;;9.10;99.90;;;;;;5057356;28;20525;-41
2023/03/14 00:45:03;;;;;;;28.90;5.20;;;9.00;99.90;;;;;;5056950;28;20110;-44
2023/03/14 00:47:29;;;;;;;23.30;5.75;;;9.00;99.90;;;;;;5056862;28;20049;-46
2023/03/14 00:49:55;;;;;;;25.60;5.25;;;9.00;99.90;;;;;;5055578;28;20040;-47
2023/03/14 00:52:20;;;;;;;19.23;4.25;;;9.00;99.90;;;;;;5056604;28;20175;-41
2023/03/14 00:54:46;;;;;;;21.30;4.53;;;9.00;99.90;;;;;;5057128;28;20052;-43
2023/03/14 00:57:11;;;;;;;23.83;5.28;;;9.00;99.90;;;;;;5051655;28;20129;-47
2023/03/14 00:59:37;;;;;;;20.20;4.95;;;9.10;99.90;;;;;;5055958;28;20052;-45
2023/03/14 01:02:03;;;;;;;27.42;5.80;;;9.10;99.90;;;;;;5057057;28;20052;-47
2023/03/14 01:04:30;;;;;;;21.95;4.90;;;9.20;99.90;;;;;;5046577;28;20121;-44
2023/03/14 01:06:55;;;;;;;21.58;4.88;;;9.30;99.90;;;;;;5056855;28;20056;-41
2023/03/14 01:09:21;;;;;;;20.45;4.63;;;9.30;99.90;;;;;;5072548;28;20056;-42
2023/03/14 01:11:47;;;;;;;23.08;4.32;;;9.30;99.90;;;;;;5064716;28;20060;-41
2023/03/14 01:14:13;;;;;;;18.40;4.85;;;9.40;99.90;;;;;;5074952;28;20056;-44
2023/03/14 01:16:39;;;;;;;23.25;4.85;;;9.30;99.90;;;;;;5077031;28;20391;-51
2023/03/14 01:19:04;;;;;;;20.35;4.63;;;9.40;99.90;;;;;;5076808;28;20093;-45
2023/03/14 01:21:33;;;;;;;19.83;4.53;;;9.40;99.90;;;;;;5076840;28;20093;-44
2023/03/14 01:24:01;;;;;;;14.73;3.90;;;9.40;99.90;;;;;;5077284;28;20463;-46
2023/03/14 01:26:29;;;;;;;18.73;3.95;;;9.40;99.90;;;;;;5076056;28;20426;-47
2023/03/14 01:28:56;;;;;;;14.20;4.55;;;9.40;99.90;;;;;;5075676;28;20076;-43
2023/03/14 01:31:22;;;;;;;15.88;3.97;;;9.40;99.90;;;;;;5075925;28;20204;-45
2023/03/14 01:33:48;;;;;;;16.48;4.38;;;9.30;99.90;;;;;;5075646;28;20044;-44
2023/03/14 01:36:14;;;;;;;13.48;3.40;;;9.30;99.90;;;;;;5074257;28;20669;-43
2023/03/14 01:38:40;;;;;;;19.52;4.10;;;9.30;99.90;;;;;;5055209;28;20394;-52
2023/03/14 01:41:11;;;;;;;13.70;4.25;;;9.20;99.90;;;;;;5056028;28;20079;-48
2023/03/14 01:43:37;;;;;;;14.90;4.20;;;9.20;99.90;;;;;;5056410;28;20090;-42
2023/03/14 01:46:06;;;;;;;17.50;3.83;;;9.20;99.90;;;;;;5056427;28;20494;-44
2023/03/14 01:48:35;;;;;;;20.38;4.85;;;9.20;99.90;;;;;;5055655;28;20631;-43
2023/03/14 01:51:02;;;;;;;19.38;4.40;;;9.10;99.90;;;;;;5054762;28;20075;-43
2023/03/14 01:53:28;;;;;;;16.10;3.60;;;9.10;99.90;;;;;;5055701;28;20048;-44
2023/03/14 01:55:58;;;;;;;19.55;3.50;;;9.00;99.90;;;;;;5051269;28;20491;-49
2023/03/14 01:58:27;;;;;;;12.90;3.45;;;9.00;99.90;;;;;;5055184;28;20048;-46
2023/03/14 02:00:58;;;;;;;18.48;4.63;;;9.00;99.90;;;;;;5053985;28;20105;-45
2023/03/14 02:03:25;;;;;;;15.30;3.70;;;8.90;99.90;;;;;;5046568;28;20048;-47
2023/03/14 02:05:53;;;;;;;17.90;3.80;;;8.90;99.90;;;;;;5056382;28;20507;-43
2023/03/14 02:08:21;;;;;;;15.90;3.05;;;8.90;99.90;;;;;;5069380;28;20514;-40
2023/03/14 02:10:49;;;;;;;16.75;3.58;;;8.90;99.90;;;;;;5069938;28;20513;-41
2023/03/14 02:13:17;;;;;;;15.02;3.50;;;8.90;99.90;;;;;;5075444;28;20052;-44
2023/03/14 02:15:43;;;;;;;14.57;3.38;;;8.90;99.90;;;;;;5075109;28;20056;-43
2023/03/14 02:18:10;;;;;;;19.90;3.03;;;9.00;99.90;;;;;;5076029;28;20055;-53
2023/03/14 02:20:47;;;;;;;13.05;3.28;;;9.00;99.90;;;;;;5074320;28;20395;-47
2023/03/14 02:23:16;;;;;;;16.13;3.88;;;9.00;99.90;;;;;;5064485;28;20052;-47
2023/03/14 02:26:00;;;;;;;15.95;3.70;;;9.00;99.90;;;;;;5072373;28;20468;-44
2023/03/14 02:28:26;;;;;;;11.80;3.72;;;9.00;99.90;;;;;;5074698;28;20048;-48
2023/03/14 02:30:52;;;;;;;15.10;3.67;;;8.90;99.90;;;;;;5073990;28;20047;-48
2023/03/14 02:33:20;;;;;;;16.27;3.75;;;8.90;99.90;;;;;;5074717;28;20414;-42
2023/03/14 02:35:58;;;;;;;18.10;3.70;;;8.90;99.90;;;;;;5074765;28;20458;-46
2023/03/14 02:38:30;;;;;;;22.50;3.95;;;8.90;99.90;;;;;;5053708;28;20143;-48
2023/03/14 02:40:56;;;;;;;13.30;3.42;;;8.80;99.90;;;;;;5053814;28;20076;-50
2023/03/14 02:43:21;;;;;;;12.80;3.63;;;8.80;99.90;;;;;;5036851;28;20255;-48
2023/03/14 02:45:49;;;;;;;12.63;3.88;;;8.80;99.90;;;;;;5055394;28;20048;-47
2023/03/14 02:48:26;;;;;;;15.57;3.80;;;8.70;99.90;;;;;;5054664;28;20585;-44
2023/03/14 02:50:55;;;;;;;13.43;3.38;;;8.70;99.90;;;;;;5052811;28;20080;-44
2023/03/14 02:53:35;;;;;;;17.90;4.10;;;8.70;99.90;;;;;;5054312;28;20151;-44
2023/03/14 02:56:01;;;;;;;11.73;3.38;;;8.70;99.90;;;;;;5048091;28;20056;-41
2023/03/14 02:58:29;;;;;;;14.68;4.13;;;8.70;99.90;;;;;;5053157;28;20583;-41
2023/03/14 03:00:54;;;;;;;22.55;4.78;;;8.70;99.90;;;;;;5048387;28;20041;-47
2023/03/14 03:03:20;;;;;;;21.20;4.25;;;8.60;99.90;;;;;;5045702;28;20069;-43
2023/03/14 03:05:50;;;;;;;26.25;4.75;;;8.60;99.90;;;;;;5051394;28;20044;-49
2023/03/14 03:08:17;;;;;;;25.13;6.07;;;8.60;99.90;;;;;;5053159;28;20473;-47
2023/03/14 03:10:43;;;;;;;24.08;4.50;;;8.60;99.90;;;;;;5054987;28;20040;-44
2023/03/14 03:13:09;;;;;;;18.38;4.20;;;8.50;99.90;;;;;;5058770;28;20045;-50
2023/03/14 03:15:34;;;;;;;21.77;4.50;;;8.50;99.90;;;;;;5058635;28;20703;-46
2023/03/14 03:18:00;;;;;;;18.98;4.28;;;8.50;99.90;;;;;;5053249;28;20131;-45
2023/03/14 03:20:25;;;;;;;24.05;4.93;;;8.50;99.90;;;;;;5057154;28;20040;-44
2023/03/14 03:22:51;;;;;;;26.92;5.53;;;8.40;99.90;;;;;;5058730;28;20091;-46
2023/03/14 03:25:17;;;;;;;26.83;5.00;;;8.50;99.90;;;;;;5060642;28;20123;-45
2023/03/14 03:27:42;;;;;;;20.55;5.47;;;8.40;99.90;;;;;;5079283;28;20048;-43
2023/03/14 03:30:09;;;;;;;25.15;4.78;;;8.40;99.90;;;;;;5077783;28;20453;-51
2023/03/14 03:32:34;;;;;;;23.88;5.10;;;8.40;99.90;;;;;;5069521;28;20258;-47
2023/03/14 03:35:01;;;;;;;24.00;5.78;;;8.40;99.90;;;;;;5074473;28;20044;-41
2023/03/14 03:37:27;;;;;;;22.98;5.40;;;8.40;99.90;;;;;;5065665;28;20052;-47
2023/03/14 03:39:53;;;;;;;29.85;5.75;;;8.40;99.90;;;;;;5057231;28;20514;-51
2023/03/14 03:42:19;;;;;;;22.75;5.38;;;8.40;99.90;;;;;;5067060;28;20571;-43
2023/03/14 03:44:44;;;;;;;28.08;5.35;;;8.40;99.90;;;;;;5077787;28;20638;-46
2023/03/14 03:47:10;;;;;;;28.13;6.28;;;8.40;99.90;;;;;;5078131;28;20175;-40
2023/03/14 03:49:36;;;;;;;23.33;5.63;;;8.40;99.90;;;;;;5075882;28;20129;-45
2023/03/14 03:52:02;;;;;;;31.20;5.90;;;8.40;99.90;;;;;;5075503;28;20429;-47
2023/03/14 03:54:28;;;;;;;26.92;5.15;;;8.40;99.90;;;;;;5057557;28;20130;-44
2023/03/14 03:56:54;;;;;;;27.05;4.85;;;8.40;99.90;;;;;;5052252;28;20048;-51
2023/03/14 03:59:20;;;;;;;23.40;5.28;;;8.40;99.90;;;;;;5072562;28;20044;-41
2023/03/14 04:01:46;;;;;;;24.30;5.18;;;8.40;99.90;;;;;;5078327;28;20490;-41
2023/03/14 04:04:12;;;;;;;27.48;5.78;;;8.40;99.90;;;;;;5052757;28;20049;-48
2023/03/14 04:06:38;;;;;;;28.52;5.65;;;8.40;99.90;;;;;;5058295;28;20041;-48
2023/03/14 04:09:04;;;;;;;18.30;5.22;;;8.40;99.90;;;;;;5057621;28;20167;-43
2023/03/14 04:11:29;;;;;;;24.60;5.43;;;8.40;99.90;;;;;;5057135;28;20063;-47
2023/03/14 04:13:55;;;;;;;31.02;7.22;;;8.50;99.90;;;;;;5057119;28;20410;-47
2023/03/14 04:16:23;;;;;;;24.23;6.80;;;8.50;99.90;;;;;;5066155;28;20077;-42
2023/03/14 04:18:49;;;;;;;28.48;5.88;;;8.50;99.90;;;;;;5076973;28;20514;-43
2023/03/14 04:21:15;;;;;;;28.85;6.75;;;8.40;99.90;;;;;;5073707;28;20048;-46
2023/03/14 04:23:41;;;;;;;31.38;8.00;;;8.50;99.90;;;;;;5077037;28;20344;-44
2023/03/14 04:26:07;;;;;;;21.95;6.70;;;8.40;99.90;;;;;;5078541;28;20047;-54
2023/03/14 04:28:32;;;;;;;28.00;8.32;;;8.40;99.90;;;;;;5077385;28;20055;-49
2023/03/14 04:30:58;;;;;;;24.98;7.82;;;8.40;99.90;;;;;;5067075;28;20316;-43
2023/03/14 04:33:24;;;;;;;28.98;8.57;;;8.50;99.90;;;;;;5057049;28;20493;-48
2023/03/14 04:35:54;;;;;;;22.95;8.40;;;8.50;99.90;;;;;;5056970;28;20399;-43
2023/03/14 04:38:19;;;;;;;23.92;8.75;;;8.40;99.90;;;;;;5055279;28;20070;-45
2023/03/14 04:40:45;;;;;;;32.20;10.85;;;8.50;99.90;;;;;;5055760;28;20520;-42
2023/03/14 04:43:12;;;;;;;25.52;9.02;;;8.50;99.90;;;;;;5056866;28;20537;-46
2023/03/14 04:45:41;;;;;;;28.02;9.95;;;8.50;99.90;;;;;;5038796;28;20141;-47
2023/03/14 04:48:07;;;;;;;26.40;9.68;;;8.40;99.90;;;;;;5057447;28;20051;-51
2023/03/14 04:50:32;;;;;;;24.35;10.23;;;8.40;99.90;;;;;;5056377;28;20418;-49
2023/03/14 04:52:58;;;;;;;22.20;9.93;;;8.40;99.90;;;;;;5056578;28;20059;-42
2023/03/14 04:55:24;;;;;;;28.67;11.55;;;8.40;99.90;;;;;;5053412;28;20065;-45
2023/03/14 04:57:49;;;;;;;27.38;10.50;;;8.40;99.90;;;;;;5035736;28;20450;-49
2023/03/14 05:00:18;;;;;;;28.10;9.90;;;8.40;99.90;;;;;;5054340;28;20415;-46
2023/03/14 05:02:44;;;;;;;28.35;10.75;;;8.40;99.90;;;;;;5050259;28;20128;-46
2023/03/14 05:05:10;;;;;;;25.77;9.45;;;8.40;99.90;;;;;;5049924;28;20052;-46
2023/03/14 05:07:36;;;;;;;19.92;8.88;;;8.40;99.90;;;;;;5071969;28;20123;-41
2023/03/14 05:10:01;;;;;;;22.90;9.18;;;8.40;99.90;;;;;;5075655;28;20189;-43
2023/03/14 05:12:27;;;;;;;20.00;8.27;;;8.30;99.90;;;;;;5076495;28;20059;-45
2023/03/14 05:14:53;;;;;;;13.60;7.35;;;8.30;99.90;;;;;;5075093;28;20047;-43
2023/03/14 05:17:18;;;;;;;21.65;9.30;;;8.30;99.90;;;;;;5066875;28;20048;-44
2023/03/14 05:19:44;;;;;;;22.85;8.25;;;8.40;99.90;;;;;;5055381;28;20056;-46
2023/03/14 05:22:10;;;;;;;16.27;7.85;;;8.30;99.90;;;;;;5056638;28;20097;-45
2023/03/14 05:24:36;;;;;;;18.85;8.20;;;8.30;99.90;;;;;;5056979;28;20048;-45
2023/03/14 05:27:02;;;;;;;20.33;8.63;;;8.30;99.90;;;;;;5054414;28;20058;-42
2023/03/14 05:29:27;;;;;;;26.52;9.52;;;8.30;99.90;;;;;;5054338;28;20047;-48
2023/03/14 05:31:53;;;;;;;17.52;8.88;;;8.30;99.90;;;;;;5055218;28;20048;-46
2023/03/14 05:34:19;;;;;;;21.05;9.15;;;8.30;99.90;;;;;;5054545;28;20076;-48
2023/03/14 05:36:44;;;;;;;16.58;8.30;;;8.30;99.90;;;;;;5053868;28;20059;-45
2023/03/14 05:39:10;;;;;;;17.42;7.78;;;8.20;99.90;;;;;;5054564;28;20044;-44
2023/03/14 05:41:36;;;;;;;12.30;7.05;;;8.30;99.90;;;;;;5056006;28;20059;-47
2023/03/14 05:44:01;;;;;;;20.73;7.93;;;8.20;99.90;;;;;;5054171;28;20045;-47
2023/03/14 05:46:27;;;;;;;17.38;9.05;;;8.20;99.90;;;;;;5053740;28;20053;-43
2023/03/14 05:48:53;;;;;;;21.10;8.93;;;8.20;99.90;;;;;;5054898;28;20055;-45
2023/03/14 05:51:18;;;;;;;21.85;9.32;;;8.20;99.90;;;;;;5054652;28;20055;-46
2023/03/14 05:53:44;;;;;;;19.92;8.93;;;8.20;99.90;;;;;;5055300;28;20074;-45
2023/03/14 05:56:10;;;;;;;21.13;9.50;;;8.20;99.90;;;;;;5050767;28;20063;-47
2023/03/14 05:58:35;;;;;;;23.02;9.02;;;8.20;99.90;;;;;;5064154;28;20055;-49
2023/03/14 06:01:05;;;;;;;16.33;8.73;;;8.20;99.90;;;;;;5074944;28;20048;-44
2023/03/14 06:03:31;;;;;;;22.08;8.43;;;8.20;99.90;;;;;;5056701;28;20049;-47
2023/03/14 06:05:57;;;;;;;22.42;8.80;;;8.20;99.90;;;;;;5054793;28;20070;-44
2023/03/14 06:08:23;;;;;;;23.23;9.60;;;8.20;99.90;;;;;;5054507;28;20055;-46
2023/03/14 06:10:49;;;;;;;26.10;9.60;;;8.20;99.90;;;;;;5053834;28;20087;-46
2023/03/14 06:13:15;;;;;;;21.52;9.20;;;8.20;99.90;;;;;;5055015;28;20044;-50
2023/03/14 06:15:41;;;;;;;21.77;9.10;;;8.20;99.90;;;;;;5054919;28;20040;-46
2023/03/14 06:18:07;;;;;;;10.75;5.35;;;8.20;99.90;;;;;;5055123;28;20079;-52
2023/03/14 06:20:33;;;;;;;14.02;5.97;;;8.10;99.90;;;;;;5053815;28;20147;-44
2023/03/14 06:22:59;;;;;;;13.35;5.45;;;8.10;99.90;;;;;;5054086;28;20628;-46
2023/03/14 06:25:25;;;;;;;13.45;4.82;;;8.10;99.90;;;;;;5058053;28;20193;-43
2023/03/14 06:27:50;;;;;;;11.02;5.10;;;8.10;99.90;;;;;;5075436;28;20043;-43
2023/03/14 06:30:16;;;;;;;10.23;3.17;;;8.00;99.90;;;;;;5074167;28;20514;-48
2023/03/14 06:32:42;;;;;;;10.82;2.97;;;7.90;99.90;;;;;;5075713;28;20059;-44
2023/03/14 06:35:08;;;;;;;10.45;1.30;;;7.80;99.90;;;;;;5075045;28;20048;-49
2023/03/14 06:37:34;;;;;;;7.43;1.30;;;7.50;99.90;;;;;;5062295;28;20048;-46
2023/03/14 06:39:59;;;;;;;8.10;1.52;;;7.20;99.90;;;;;;5053027;28;20705;-45
2023/03/14 06:42:25;;;;;;;11.23;1.92;;;7.00;99.90;;;;;;5054201;28;20044;-46
2023/03/14 06:44:51;;;;;;;8.70;1.77;;;6.80;99.90;;;;;;5054286;28;20044;-41
2023/03/14 06:47:17;;;;;;;15.30;2.30;;;6.70;99.90;;;;;;5055071;28;20843;-46
2023/03/14 06:49:42;;;;;;;13.45;2.50;;;6.50;99.90;;;;;;5053312;28;20040;-47
2023/03/14 06:52:08;;;;;;;15.73;2.80;;;6.10;99.90;;;;;;5054363;28;20059;-49
2023/03/14 06:54:33;;;;;;;28.45;4.15;;;6.00;99.90;;;;;;5070142;28;20063;-46
2023/03/14 06:56:59;;;;;;;13.05;1.92;;;5.80;99.90;;;;;;5049422;28;20132;-48
2023/03/14 06:59:25;;;;;;;12.27;2.00;;;5.70;99.90;;;;;;5053368;28;20421;-45
2023/03/14 07:01:51;;;;;;;13.60;2.50;;;5.60;99.90;;;;;;5054486;28;20056;-44
2023/03/14 07:04:17;;;;;;;14.77;1.80;;;5.40;99.90;;;;;;5044204;28;20815;-41
2023/03/14 07:06:44;;;;;;;12.73;2.58;;;5.30;99.90;;;;;;5054389;28;20069;-48
2023/03/14 07:09:13;;;;;;;12.07;2.00;;;5.20;99.90;;;;;;5052988;28;20044;-46
2023/03/14 07:11:39;;;;;;;10.25;1.77;;;5.10;99.90;;;;;;5055641;28;20044;-45
2023/03/14 07:14:05;;;;;;;12.52;1.80;;;5.10;99.90;;;;;;5055251;28;20048;-43
2023/03/14 07:16:32;;;;;;;8.02;1.23;;;5.00;99.90;;;;;;5054529;28;20358;-46
2023/03/14 07:18:59;;;;;;;8.10;1.52;;;4.90;99.90;;;;;;5056081;28;21012;-43
2023/03/14 07:21:25;;;;;;;13.00;1.38;;;4.80;99.90;;;;;;5064138;28;20083;-43
2023/03/14 07:23:51;;;;;;;8.82;1.27;;;4.70;99.90;;;;;;5073760;28;20242;-45
2023/03/14 07:26:17;;;;;;;7.00;1.50;;;4.70;99.90;;;;;;5072665;28;20398;-46
2023/03/14 07:28:42;;;;;;;10.80;2.30;;;4.70;99.90;;;;;;5056811;28;20457;-45
2023/03/14 07:31:08;;;;;;;4.80;1.00;;;4.60;99.90;;;;;;5054588;28;20713;-49
2023/03/14 07:33:34;;;;;;;5.85;0.90;;;4.70;99.90;;;;;;5058276;28;20164;-44
2023/03/14 07:36:00;;;;;;;5.82;0.88;;;4.70;99.90;;;;;;5073655;28;20569;-42
2023/03/14 07:38:26;;;;;;;7.40;1.23;;;4.80;99.90;;;;;;5052417;28;20418;-43
2023/03/14 07:40:58;;;;;;;5.85;0.90;;;4.80;99.90;;;;;;5053230;28;20047;-43
2023/03/14 07:43:24;;;;;;;5.83;1.20;;;4.80;99.90;;;;;;5053897;28;20613;-46
2023/03/14 07:45:49;;;;;;;3.05;1.02;;;4.80;99.90;;;;;;5053760;28;20076;-45
2023/03/14 07:48:15;;;;;;;7.82;1.08;;;4.80;99.90;;;;;;5066578;28;20049;-49
2023/03/14 07:50:41;;;;;;;4.88;0.85;;;4.80;99.90;;;;;;5053181;28;20053;-45
2023/03/14 07:53:06;;;;;;;11.52;1.58;;;4.80;99.90;;;;;;5053626;28;20053;-47
2023/03/14 07:55:32;;;;;;;9.35;1.30;;;4.80;99.90;;;;;;5050594;28;20049;-43
2023/03/14 07:57:57;;;;;;;7.45;1.02;;;4.90;99.90;;;;;;5054018;28;20354;-48
2023/03/14 08:00:23;;;;;;;4.38;1.02;;;4.90;99.90;;;;;;5056088;28;20475;-47
2023/03/14 08:02:49;;;;;;;8.80;1.58;;;5.00;99.90;;;;;;5052966;28;20147;-40
2023/03/14 08:05:15;;;;;;;12.10;1.45;;;5.00;99.90;;;;;;5051840;28;20114;-48
2023/03/14 08:07:40;;;;;;;5.65;1.30;;;5.10;99.90;;;;;;5057234;28;20106;-45
2023/03/14 08:10:07;;;;;;;9.30;1.80;;;5.10;99.90;;;;;;5054314;28;20051;-43
2023/03/14 08:12:32;;;;;;;5.93;1.08;;;5.20;99.90;;;;;;5041027;28;20094;-41
2023/03/14 08:14:59;;;;;;;7.43;1.65;;;5.30;99.90;;;;;;5057219;28;20353;-43
2023/03/14 08:17:25;;;;;;;6.65;1.48;;;5.30;99.90;;;;;;5055298;28;20320;-48
2023/03/14 08:19:50;;;;;;;7.65;1.30;;;5.30;99.90;;;;;;5041473;28;20181;-49
2023/03/14 08:22:16;;;;;;;7.80;1.50;;;5.40;99.90;;;;;;5044299;28;20040;-49
2023/03/14 08:24:42;;;;;;;5.82;1.27;;;5.50;99.90;;;;;;5049161;28;20063;-40
2023/03/14 08:27:07;;;;;;;9.35;1.70;;;5.50;99.90;;;;;;5052976;28;20044;-45
2023/03/14 08:29:33;;;;;;;9.10;1.70;;;5.60;99.90;;;;;;5064084;28;20055;-45
2023/03/14 08:31:59;;;;;;;10.50;1.92;;;5.70;99.90;;;;;;5054014;28;20044;-40
2023/03/14 08:34:25;;;;;;;14.73;2.92;;;5.70;99.90;;;;;;5056430;28;20427;-46
2023/03/14 08:36:50;;;;;;;9.63;2.20;;;5.80;99.90;;;;;;5057854;28;20063;-48
2023/03/14 08:39:16;;;;;;;15.15;2.10;;;6.10;99.90;;;;;;5073763;28;20308;-43
2023/03/14 08:41:44;;;;;;;12.73;2.20;;;6.30;99.90;;;;;;5075743;28;20204;-40
2023/03/14 08:44:11;;;;;;;13.45;2.25;;;6.30;99.90;;;;;;5076925;28;20040;-48
2023/03/14 08:46:37;;;;;;;7.47;1.88;;;6.50;99.90;;;;;;5076558;28;20059;-40
2023/03/14 08:49:03;;;;;;;7.93;1.80;;;6.60;99.90;;;;;;5075379;28;20044;-43
2023/03/14 08:51:29;;;;;;;14.88;2.50;;;6.60;99.90;;;;;;5075490;28;20044;-40
2023/03/14 08:53:54;;;;;;;13.50;2.80;;;6.60;99.90;;;;;;5058794;28;20051;-44
2023/03/14 08:56:21;;;;;;;15.38;2.70;;;6.60;99.90;;;;;;5065914;28;20044;-46
2023/03/14 08:58:46;;;;;;;19.63;3.00;;;6.70;99.90;;;;;;5072302;28;20047;-44
2023/03/14 09:01:12;;;;;;;19.35;4.22;;;6.60;99.90;;;;;;5056838;28;20489;-43
2023/03/14 09:03:38;;;;;;;15.00;3.45;;;6.80;99.90;;;;;;5054673;28;20098;-51
2023/03/14 09:06:09;;;;;;;16.63;3.33;;;7.00;99.90;;;;;;5055854;28;20039;-48
2023/03/14 09:08:35;;;;;;;16.02;3.60;;;7.10;99.90;;;;;;5057436;28;20044;-42
2023/03/14 09:11:01;;;;;;;14.77;3.83;;;7.10;99.90;;;;;;5073829;28;20533;-48
2023/03/14 09:13:27;;;;;;;16.77;3.45;;;7.00;99.90;;;;;;5074511;28;20577;-43
2023/03/14 09:15:54;;;;;;;14.70;3.97;;;6.80;99.90;;;;;;5071680;28;20045;-43
2023/03/14 09:18:20;;;;;;;19.00;3.10;;;6.80;99.90;;;;;;5066474;28;20100;-42
2023/03/14 09:20:46;;;;;;;21.10;3.65;;;6.90;99.90;;;;;;5075198;28;20048;-44
2023/03/14 09:23:11;;;;;;;28.02;3.60;;;6.80;99.90;;;;;;5076261;28;20059;-49
2023/03/14 09:25:37;;;;;;;26.88;5.43;;;6.70;99.90;;;;;;5076535;28;20113;-46
2023/03/14 09:28:04;;;;;;;23.23;4.20;;;6.50;99.90;;;;;;5074092;28;20075;-42
2023/03/14 09:30:30;;;;;;;18.85;3.88;;;6.30;99.90;;;;;;5073900;28;20414;-45
2023/03/14 09:32:56;;;;;;;16.08;3.85;;;6.30;99.90;;;;;;5067374;28;20066;-46
2023/03/14 09:35:22;;;;;;;19.90;4.10;;;6.40;99.90;;;;;;5056919;28;20422;-48
2023/03/14 09:37:48;;;;;;;20.17;3.97;;;6.50;99.90;;;;;;5053555;28;20058;-44
2023/03/14 09:40:16;;;;;;;20.63;4.78;;;6.60;99.90;;;;;;5053804;28;20098;-47
2023/03/14 09:42:42;;;;;;;18.58;3.78;;;6.80;99.90;;;;;;5054159;28;20044;-43
2023/03/14 09:45:25;;;;;;;16.67;4.15;;;6.90;99.90;;;;;;5054468;28;20041;-50
2023/03/14 09:47:53;;;;;;;17.00;4.47;;;7.00;99.90;;;;;;5053169;28;20479;-47
2023/03/14 09:50:19;;;;;;;18.33;3.80;;;7.00;99.90;;;;;;5050579;28;20131;-40
2023/03/14 09:52:53;;;;;;;19.38;4.95;;;7.00;99.90;;;;;;5052917;28;20048;-45
2023/03/14 09:55:21;;;;;;;22.20;4.00;;;7.00;99.90;;;;;;5053833;28;20127;-42
2023/03/14 09:57:49;;;;;;;23.35;3.80;;;6.90;99.90;;;;;;5050287;28;20117;-50
2023/03/14 10:00:25;;;;;;;18.65;3.65;;;6.90;99.90;;;;;;5052944;28;20044;-44
2023/03/14 10:03:06;;;;;;;22.58;4.25;;;6.90;99.90;;;;;;5050509;28;20048;-45
2023/03/14 10:05:32;;;;;;;17.30;4.55;;;6.80;99.90;;;;;;5051294;28;20350;-43
2023/03/14 10:07:58;;;;;;;16.77;4.00;;;6.80;99.90;;;;;;5072497;28;20465;-48
2023/03/14 10:10:26;;;;;;;23.05;4.05;;;6.90;99.90;;;;;;5073259;28;20048;-45
2023/03/14 10:13:21;;;;;;;15.32;2.83;;;7.10;99.90;;;;;;5074555;28;20041;-44
2023/03/14 10:15:58;;;;;;;19.60;4.10;;;7.30;99.90;;;;;;5074699;28;20056;-52
2023/03/14 10:18:25;;;;;;;17.90;3.20;;;7.60;99.90;;;;;;5074489;28;20048;-43
2023/03/14 10:21:02;;;;;;;21.40;3.72;;;7.60;99.90;;;;;;5073080;28;20043;-39
2023/03/14 10:23:31;;;;;;;21.17;3.55;;;7.50;99.90;;;;;;5065607;28;20405;-48
2023/03/14 10:26:08;;;;;;;19.10;4.18;;;7.40;99.90;;;;;;5056829;28;20414;-44
2023/03/14 10:28:40;;;;;;;21.90;3.63;;;7.30;99.90;;;;;;5053788;28;20117;-45
2023/03/14 10:31:06;;;;;;;15.30;3.20;;;7.10;99.90;;;;;;5053180;28;20048;-45
2023/03/14 10:33:35;;;;;;;15.00;2.85;;;7.10;99.90;;;;;;5071528;28;20058;-40
2023/03/14 10:36:08;;;;;;;15.52;3.03;;;7.10;99.90;;;;;;5075219;28;20044;-42
2023/03/14 10:38:37;;;;;;;10.82;2.55;;;7.40;99.90;;;;;;5049479;28;20657;-46
2023/03/14 10:41:22;;;;;;;23.90;4.32;;;7.70;99.90;;;;;;5054265;28;20546;-48
2023/03/14 10:43:53;;;;;;;19.85;3.83;;;7.80;99.90;;;;;;5085845;28;20119;-46
2023/03/14 10:46:20;;;;;;;18.52;3.88;;;8.10;99.90;;;;;;5054034;28;20055;-41
2023/03/14 10:48:46;;;;;;;16.45;3.67;;;8.10;99.90;;;;;;5053619;28;20506;-48
2023/03/14 10:51:20;;;;;;;18.67;2.88;;;8.20;99.90;;;;;;5054025;28;20048;-43
2023/03/14 10:54:26;;;;;;;15.15;2.80;;;8.00;99.90;;;;;;5051381;28;20114;-42
2023/03/14 10:57:00;;;;;;;14.05;2.67;;;8.10;99.90;;;;;;5052756;28;20418;-46
2023/03/14 10:59:29;;;;;;;14.02;2.33;;;8.00;99.90;;;;;;5050811;28;20048;-44
2023/03/14 11:01:54;;;;;;;12.73;2.63;;;8.00;99.90;;;;;;5053727;28;20494;-42
2023/03/14 11:04:42;;;;;;;17.60;3.17;;;7.90;99.90;;;;;;5048584;28;20045;-40
2023/03/14 11:07:32;;;;;;;13.00;2.80;;;8.00;99.90;;;;;;5053194;28;20130;-45
2023/03/14 11:10:17;;;;;;;14.55;3.05;;;8.30;99.90;;;;;;5052575;28;20056;-47
2023/03/14 11:13:06;;;;;;;13.23;2.30;;;8.40;99.90;;;;;;5045253;28;20097;-45
2023/03/14 11:15:56;;;;;;;10.25;2.70;;;8.40;99.90;;;;;;5073882;28;20131;-44
2023/03/14 11:18:42;;;;;;;16.90;3.97;;;8.30;99.90;;;;;;5072040;28;20047;-48
2023/03/14 11:21:26;;;;;;;10.55;2.30;;;8.10;99.90;;;;;;5051383;28;20109;-48
2023/03/14 11:23:54;;;;;;;7.03;1.92;;;7.90;99.90;;;;;;5044262;28;20066;-51
2023/03/14 11:26:38;;;;;;;6.38;2.08;;;7.80;99.90;;;;;;5051721;28;20137;-47
2023/03/14 11:29:46;;;;;;;8.77;1.77;;;7.90;99.90;;;;;;5050906;28;20090;-40
2023/03/14 11:32:30;;;;;;;8.18;1.50;;;7.90;99.90;;;;;;4972826;28;20163;-39
2023/03/14 11:34:56;;;;;;;;;;;8.20;99.90;;;;;;4976337;28;20149;-45
2023/03/14 11:37:33;;;;;;;9.20;1.40;;;8.30;99.90;;;;;;4975229;28;19925;-41
2023/03/14 11:40:21;;;;;;;7.22;1.80;;;8.40;99.90;;;;;;4961946;28;20437;-40
2023/03/14 11:43:09;;;;;;;6.47;1.27;;;8.50;99.90;;;;;;4976028;28;20132;-39
2023/03/14 11:45:37;;;;;;;8.57;1.88;;;8.50;99.90;;;;;;4965799;28;20058;-41
2023/03/14 11:48:27;;;;;;;4.82;1.00;;;8.50;99.90;;;;;;4957298;28;20046;-48
2023/03/14 11:50:57;;;;;;;8.25;1.65;;;8.60;99.90;;;;;;4956771;28;20337;-44
2023/03/14 11:53:36;;;;;;;7.00;1.90;;;8.50;99.90;;;;;;4956895;28;20134;-49
2023/03/14 11:56:02;;;;;;;10.15;2.05;;;8.40;99.90;;;;;;4957216;28;20526;-44
2023/03/14 11:58:33;;;;;;;11.85;2.67;;;8.60;99.90;;;;;;4958939;28;20065;-46
2023/03/14 12:01:07;;;;;;;10.23;2.47;;;8.70;99.90;;;;;;4994643;28;20231;-42
2023/03/14 12:03:38;;;;;;;;;;;8.80;99.90;;;;;;4994822;28;20500;-39
2023/03/14 12:06:19;;;;;;;5.53;1.60;;;8.90;99.90;;;;;;4995643;28;19975;-43
2023/03/14 12:08:52;;;;;;;10.70;1.80;;;9.20;99.90;;;;;;5011136;28;20506;-45
2023/03/14 12:11:25;;;;;;;9.85;1.80;;;9.20;99.90;;;;;;5040485;28;20314;-46
2023/03/14 12:13:52;;;;;;;11.02;2.22;;;9.40;99.90;;;;;;5072930;28;20059;-42
2023/03/14 12:16:33;;;;;;;12.98;2.38;;;9.30;99.90;;;;;;5070140;28;20124;-43
2023/03/14 12:19:22;;;;;;;9.75;2.45;;;9.30;99.90;;;;;;5060580;28;20550;-45
2023/03/14 12:22:07;;;;;;;10.80;2.50;;;9.30;99.90;;;;;;5058915;28;20044;-53
2023/03/14 12:24:37;;;;;;;10.75;2.22;;;9.30;99.90;;;;;;5058738;28;20056;-45
2023/03/14 12:27:05;;;;;;;14.65;3.22;;;9.30;99.90;;;;;;5061327;28;20037;-39
2023/03/14 12:29:31;;;;;;;14.68;2.35;;;9.30;99.90;;;;;;5060764;28;20123;-40
2023/03/14 12:31:59;;;;;;;8.13;2.40;;;9.10;99.90;;;;;;5089416;27;20125;-44
2023/03/14 12:34:31;;;;;;;10.07;2.70;;;9.10;99.90;;;;;;5058173;28;20423;-45
2023/03/14 12:37:09;;;;;;;10.95;2.20;;;9.10;99.90;;;;;;5064395;28;20055;-49
2023/03/14 12:40:23;;;;;;;14.23;2.55;;;9.20;99.90;;;;;;5054125;28;20052;-45
2023/03/14 12:43:03;;;;;;;5.63;1.95;;;9.20;99.90;;;;;;5033371;28;20056;-47
2023/03/14 12:45:36;;;;;;;12.05;2.53;;;8.90;99.90;;;;;;5053413;28;20052;-43
2023/03/14 12:48:08;;;;;;;11.73;3.55;;;9.00;99.90;;;;;;5052191;28;20056;-46
2023/03/14 12:50:39;;;;;;;8.73;2.15;;;8.90;99.90;;;;;;5036334;28;20163;-44
2023/03/14 12:53:18;;;;;;;11.45;2.85;;;9.00;99.90;;;;;;5034822;28;20057;-48
2023/03/14 12:56:21;;;;;;;9.98;2.28;;;8.80;99.90;;;;;;5012712;28;20061;-48